Impacts TAF Board INFO
FOR SITUATIONAL AWARENESS. NOT TO BE USED FOR FLIGHT PLANNING PURPOSES.
IDs:

KBOS - Boston/Logan Intl, MA, US

Issued at 1727 UTC 24 Mar 2017
Updated at 1958 UTC 24 Mar 2017
Potential Impact None Slight Moderate High
Time1954Z 24/20Z 24/21Z 24/22Z 24/23Z 25/00Z 25/01Z 25/02Z 25/03Z 25/04Z 25/05Z 25/06Z 25/07Z 25/08Z
Type OBS PRVL PRVL PRVL PRVL PRVL PRVL PRVL PRVL PRVL PRVL PRVL PRVL PRVL
VIS 10 >6 >6 >6 >6 >6 >6 >6 >6 >6 >6 >6 >6 >6
CIG 43 40 40 40 40 40 40 40 40 40 40 40 40 40
Cover OVC OVC OVC OVC OVC OVC OVC OVC OVC OVC OVC OVC OVC OVC
FltCat VFR VFR VFR VFR VFR VFR VFR VFR VFR VFR VFR VFR VFR VFR
WX -RA -- -- -- -- -- -- -- -- -- -- -- -- --
WDir 190 210 210 210 210 210 210 230 230 230 230 230 230 230
WSpd 8 14 14 14 14 14 14 9 9 9 9 9 9 9
WGst -- 30 30 30 30 30 30 -- -- -- -- -- -- --

Raw TAF
KBOS 241727Z 2418/2524 20014G30KT 6SM -RA OVC030
  TEMPO 2418/2419 2SM -SN BR OVC020
  FM242000 21014G30KT P6SM OVC040
  FM250200 23009KT P6SM OVC040
  FM251400 35005KT P6SM VCSH OVC025
  FM251700 02005KT P6SM VCSH OVC020


Raw METAR
KBOS 241954Z 19008KT 10SM -RA FEW021 OVC043 03/01 A3017 RMK AO2 PRESFR SLP214 PCPN VRY LGT P0002 T00330011
KBOS 241854Z 19013KT 7SM -RA FEW016 OVC050 03/01 A3021 RMK AO2 PRESFR SLP227 P0001 T00280011
KBOS 241814Z 18015KT 10SM -RA SCT016 SCT029 OVC060 02/01 A3024 RMK AO2 P0001 T00220011
KBOS 241754Z 20016KT 7SM -RA BKN020 OVC032 02/01 A3026 RMK AO2 PK WND 20032/1657 SNE01 PRESFR SLP246 P0000 60000 T00220006 10050 21006 58052
KBOS 241719Z 21022G30KT 9SM -RA BKN029 OVC036 04/M02 A3031 RMK AO2 PK WND 20032/1657 SNE01 P0000 T00391017
KBOS 241701Z 20017G32KT 10SM -RA BKN035 OVC050 04/M03 A3032 RMK AO2 PK WND 20032/1657 SNE01 P0000 T00441028
KBOS 241654Z 21016G26KT 10SM -SNRA FEW032 OVC050 05/M03 A3032 RMK AO2 PK WND 19034/1600 RAB53SNB53 SLP266 PCPN VRY LGT P0000 T00501033

METAR Board
Radar Display
Forecast Discussion

FOR SITUATIONAL AWARENESS. NOT TO BE USED FOR FLIGHT PLANNING PURPOSES.

Page loaded:  19:58 UTC  |   12:58 PM Pacific  |   01:58 PM Mountain  |   02:58 PM Central  |   03:58 PM Eastern

 

ADVISORIES

FORECASTS

FORECASTS

OBSERVATIONS

USER TOOLS

ABOUT US